sensor_id;sensor_type;location;lat;lon;timestamp;P1;durP1;ratioP1;P2;durP2;ratioP2
5121;SDS011;2563;52.242;7.956;2023-08-06T00:01:23;10.50;;;4.70;;
5121;SDS011;2563;52.242;7.956;2023-08-06T00:03:49;11.40;;;5.77;;
5121;SDS011;2563;52.242;7.956;2023-08-06T00:06:14;10.10;;;5.83;;
5121;SDS011;2563;52.242;7.956;2023-08-06T00:08:39;18.50;;;6.20;;
5121;SDS011;2563;52.242;7.956;2023-08-06T00:11:05;12.50;;;6.50;;
5121;SDS011;2563;52.242;7.956;2023-08-06T00:13:30;13.67;;;5.60;;
5121;SDS011;2563;52.242;7.956;2023-08-06T00:15:55;11.07;;;6.00;;
5121;SDS011;2563;52.242;7.956;2023-08-06T00:18:21;11.67;;;5.30;;
5121;SDS011;2563;52.242;7.956;2023-08-06T00:20:46;8.67;;;5.07;;
5121;SDS011;2563;52.242;7.956;2023-08-06T00:23:11;11.63;;;5.40;;
5121;SDS011;2563;52.242;7.956;2023-08-06T00:25:37;11.70;;;5.73;;
5121;SDS011;2563;52.242;7.956;2023-08-06T00:28:02;12.17;;;5.90;;
5121;SDS011;2563;52.242;7.956;2023-08-06T00:30:27;10.20;;;5.00;;
5121;SDS011;2563;52.242;7.956;2023-08-06T00:32:53;11.40;;;5.73;;
5121;SDS011;2563;52.242;7.956;2023-08-06T00:35:18;11.30;;;5.40;;
5121;SDS011;2563;52.242;7.956;2023-08-06T00:37:43;10.67;;;5.80;;
5121;SDS011;2563;52.242;7.956;2023-08-06T00:40:09;11.90;;;5.83;;
5121;SDS011;2563;52.242;7.956;2023-08-06T00:42:34;13.10;;;5.70;;
5121;SDS011;2563;52.242;7.956;2023-08-06T00:45:00;10.83;;;5.40;;
5121;SDS011;2563;52.242;7.956;2023-08-06T00:47:26;12.30;;;6.07;;
5121;SDS011;2563;52.242;7.956;2023-08-06T00:49:51;13.17;;;5.53;;
5121;SDS011;2563;52.242;7.956;2023-08-06T00:52:17;10.70;;;5.63;;
5121;SDS011;2563;52.242;7.956;2023-08-06T00:54:42;10.97;;;5.43;;
5121;SDS011;2563;52.242;7.956;2023-08-06T00:57:08;10.60;;;5.87;;
5121;SDS011;2563;52.242;7.956;2023-08-06T00:59:34;9.27;;;4.97;;
5121;SDS011;2563;52.242;7.956;2023-08-06T01:01:59;11.57;;;5.73;;
5121;SDS011;2563;52.242;7.956;2023-08-06T01:04:25;14.10;;;4.87;;
5121;SDS011;2563;52.242;7.956;2023-08-06T01:15:18;10.77;;;5.30;;
5121;SDS011;2563;52.242;7.956;2023-08-06T01:17:47;10.00;;;4.90;;
5121;SDS011;2563;52.242;7.956;2023-08-06T01:20:13;11.50;;;5.07;;
5121;SDS011;2563;52.242;7.956;2023-08-06T01:22:38;11.37;;;5.53;;
5121;SDS011;2563;52.242;7.956;2023-08-06T01:25:04;10.53;;;5.30;;
5121;SDS011;2563;52.242;7.956;2023-08-06T01:27:32;9.10;;;4.83;;
5121;SDS011;2563;52.242;7.956;2023-08-06T01:32:39;9.23;;;4.53;;
5121;SDS011;2563;52.242;7.956;2023-08-06T01:35:08;10.20;;;5.53;;
5121;SDS011;2563;52.242;7.956;2023-08-06T01:37:36;12.40;;;5.60;;
5121;SDS011;2563;52.242;7.956;2023-08-06T01:40:10;14.60;;;5.13;;
5121;SDS011;2563;52.242;7.956;2023-08-06T01:42:39;11.77;;;5.00;;
5121;SDS011;2563;52.242;7.956;2023-08-06T01:45:05;17.83;;;5.60;;
5121;SDS011;2563;52.242;7.956;2023-08-06T01:47:32;15.80;;;5.77;;
5121;SDS011;2563;52.242;7.956;2023-08-06T01:49:57;12.20;;;5.67;;
5121;SDS011;2563;52.242;7.956;2023-08-06T01:52:22;11.03;;;5.30;;
5121;SDS011;2563;52.242;7.956;2023-08-06T01:54:48;12.13;;;6.23;;
5121;SDS011;2563;52.242;7.956;2023-08-06T01:57:13;12.37;;;5.60;;
5121;SDS011;2563;52.242;7.956;2023-08-06T01:59:38;11.80;;;5.10;;
5121;SDS011;2563;52.242;7.956;2023-08-06T02:02:04;13.40;;;5.47;;
5121;SDS011;2563;52.242;7.956;2023-08-06T02:04:29;10.30;;;4.97;;
5121;SDS011;2563;52.242;7.956;2023-08-06T02:06:55;15.83;;;5.43;;
5121;SDS011;2563;52.242;7.956;2023-08-06T02:09:20;11.20;;;5.20;;
5121;SDS011;2563;52.242;7.956;2023-08-06T02:11:45;9.30;;;4.47;;
5121;SDS011;2563;52.242;7.956;2023-08-06T02:14:11;9.83;;;5.43;;
5121;SDS011;2563;52.242;7.956;2023-08-06T02:16:36;11.20;;;5.40;;
5121;SDS011;2563;52.242;7.956;2023-08-06T02:19:02;11.17;;;4.83;;
5121;SDS011;2563;52.242;7.956;2023-08-06T02:21:27;12.10;;;5.37;;
5121;SDS011;2563;52.242;7.956;2023-08-06T02:23:53;11.83;;;4.50;;
5121;SDS011;2563;52.242;7.956;2023-08-06T02:26:18;10.33;;;5.23;;
5121;SDS011;2563;52.242;7.956;2023-08-06T02:28:44;11.80;;;5.73;;
5121;SDS011;2563;52.242;7.956;2023-08-06T02:31:09;13.00;;;4.97;;
5121;SDS011;2563;52.242;7.956;2023-08-06T02:33:34;10.83;;;5.10;;
5121;SDS011;2563;52.242;7.956;2023-08-06T02:36:03;12.50;;;5.30;;
5121;SDS011;2563;52.242;7.956;2023-08-06T02:38:29;10.60;;;5.10;;
5121;SDS011;2563;52.242;7.956;2023-08-06T02:40:55;10.33;;;4.87;;
5121;SDS011;2563;52.242;7.956;2023-08-06T02:43:20;13.80;;;5.40;;
5121;SDS011;2563;52.242;7.956;2023-08-06T02:45:46;12.20;;;5.50;;
5121;SDS011;2563;52.242;7.956;2023-08-06T02:48:11;9.07;;;4.83;;
5121;SDS011;2563;52.242;7.956;2023-08-06T02:50:40;7.70;;;3.93;;
5121;SDS011;2563;52.242;7.956;2023-08-06T02:53:07;8.87;;;4.50;;
5121;SDS011;2563;52.242;7.956;2023-08-06T02:55:33;10.53;;;4.70;;
5121;SDS011;2563;52.242;7.956;2023-08-06T02:58:00;9.30;;;4.90;;
5121;SDS011;2563;52.242;7.956;2023-08-06T03:00:26;9.73;;;4.80;;
5121;SDS011;2563;52.242;7.956;2023-08-06T03:02:51;10.60;;;5.17;;
5121;SDS011;2563;52.242;7.956;2023-08-06T03:05:17;8.57;;;4.53;;
5121;SDS011;2563;52.242;7.956;2023-08-06T03:07:43;9.43;;;4.70;;
5121;SDS011;2563;52.242;7.956;2023-08-06T03:10:08;12.83;;;5.10;;
5121;SDS011;2563;52.242;7.956;2023-08-06T03:12:34;9.23;;;4.57;;
5121;SDS011;2563;52.242;7.956;2023-08-06T03:14:59;16.30;;;4.80;;
5121;SDS011;2563;52.242;7.956;2023-08-06T03:17:24;9.60;;;4.57;;
5121;SDS011;2563;52.242;7.956;2023-08-06T03:19:50;10.40;;;4.50;;
5121;SDS011;2563;52.242;7.956;2023-08-06T03:22:15;9.80;;;4.63;;
5121;SDS011;2563;52.242;7.956;2023-08-06T03:24:40;9.13;;;4.40;;
5121;SDS011;2563;52.242;7.956;2023-08-06T03:27:06;12.93;;;4.53;;
5121;SDS011;2563;52.242;7.956;2023-08-06T03:29:31;8.43;;;4.63;;
5121;SDS011;2563;52.242;7.956;2023-08-06T03:31:56;13.10;;;6.60;;
5121;SDS011;2563;52.242;7.956;2023-08-06T03:34:22;9.37;;;4.67;;
5121;SDS011;2563;52.242;7.956;2023-08-06T03:36:47;10.20;;;4.50;;
5121;SDS011;2563;52.242;7.956;2023-08-06T03:39:12;12.17;;;4.80;;
5121;SDS011;2563;52.242;7.956;2023-08-06T03:41:40;8.40;;;4.70;;
5121;SDS011;2563;52.242;7.956;2023-08-06T03:44:05;12.27;;;5.23;;
5121;SDS011;2563;52.242;7.956;2023-08-06T03:46:30;13.63;;;5.40;;
5121;SDS011;2563;52.242;7.956;2023-08-06T03:49:01;11.97;;;4.93;;
5121;SDS011;2563;52.242;7.956;2023-08-06T03:51:27;9.10;;;4.67;;
5121;SDS011;2563;52.242;7.956;2023-08-06T03:53:52;15.80;;;4.90;;
5121;SDS011;2563;52.242;7.956;2023-08-06T03:56:17;11.97;;;5.20;;
5121;SDS011;2563;52.242;7.956;2023-08-06T03:58:43;9.10;;;4.50;;
5121;SDS011;2563;52.242;7.956;2023-08-06T04:01:09;10.50;;;5.13;;
5121;SDS011;2563;52.242;7.956;2023-08-06T04:03:34;10.97;;;5.00;;
5121;SDS011;2563;52.242;7.956;2023-08-06T04:05:59;10.70;;;5.20;;
5121;SDS011;2563;52.242;7.956;2023-08-06T04:08:27;11.60;;;4.77;;
5121;SDS011;2563;52.242;7.956;2023-08-06T04:10:53;8.33;;;4.57;;
5121;SDS011;2563;52.242;7.956;2023-08-06T04:13:18;11.73;;;4.90;;
5121;SDS011;2563;52.242;7.956;2023-08-06T04:15:44;9.20;;;5.07;;
5121;SDS011;2563;52.242;7.956;2023-08-06T04:18:09;24.70;;;6.60;;
5121;SDS011;2563;52.242;7.956;2023-08-06T04:20:35;9.90;;;5.33;;
5121;SDS011;2563;52.242;7.956;2023-08-06T04:23:07;10.50;;;5.20;;
5121;SDS011;2563;52.242;7.956;2023-08-06T04:25:33;8.73;;;4.63;;
5121;SDS011;2563;52.242;7.956;2023-08-06T04:27:58;9.87;;;4.80;;
5121;SDS011;2563;52.242;7.956;2023-08-06T04:30:23;10.07;;;5.17;;
5121;SDS011;2563;52.242;7.956;2023-08-06T04:32:49;10.40;;;5.00;;
5121;SDS011;2563;52.242;7.956;2023-08-06T04:35:15;10.73;;;5.27;;
5121;SDS011;2563;52.242;7.956;2023-08-06T04:37:40;10.10;;;5.00;;
5121;SDS011;2563;52.242;7.956;2023-08-06T04:40:06;12.57;;;4.30;;
5121;SDS011;2563;52.242;7.956;2023-08-06T04:42:32;9.47;;;5.27;;
5121;SDS011;2563;52.242;7.956;2023-08-06T04:44:57;12.03;;;5.10;;
5121;SDS011;2563;52.242;7.956;2023-08-06T04:47:23;10.23;;;5.67;;
5121;SDS011;2563;52.242;7.956;2023-08-06T04:49:48;13.97;;;6.00;;
5121;SDS011;2563;52.242;7.956;2023-08-06T04:52:13;10.97;;;5.00;;
5121;SDS011;2563;52.242;7.956;2023-08-06T04:54:39;10.87;;;5.40;;
5121;SDS011;2563;52.242;7.956;2023-08-06T04:57:04;10.83;;;5.43;;
5121;SDS011;2563;52.242;7.956;2023-08-06T04:59:30;8.93;;;4.63;;
5121;SDS011;2563;52.242;7.956;2023-08-06T05:01:55;12.93;;;6.43;;
5121;SDS011;2563;52.242;7.956;2023-08-06T05:04:20;9.37;;;4.73;;
5121;SDS011;2563;52.242;7.956;2023-08-06T05:06:46;11.23;;;5.60;;
5121;SDS011;2563;52.242;7.956;2023-08-06T05:09:11;11.27;;;5.40;;
5121;SDS011;2563;52.242;7.956;2023-08-06T05:11:36;11.73;;;5.40;;
5121;SDS011;2563;52.242;7.956;2023-08-06T05:14:02;11.63;;;5.60;;
5121;SDS011;2563;52.242;7.956;2023-08-06T05:16:27;9.30;;;5.13;;
5121;SDS011;2563;52.242;7.956;2023-08-06T05:18:53;12.03;;;5.00;;
5121;SDS011;2563;52.242;7.956;2023-08-06T05:21:18;10.30;;;4.90;;
5121;SDS011;2563;52.242;7.956;2023-08-06T05:23:43;8.93;;;4.50;;
5121;SDS011;2563;52.242;7.956;2023-08-06T05:26:09;10.40;;;5.03;;
5121;SDS011;2563;52.242;7.956;2023-08-06T05:28:34;11.47;;;5.43;;
5121;SDS011;2563;52.242;7.956;2023-08-06T05:31:03;11.63;;;4.67;;
5121;SDS011;2563;52.242;7.956;2023-08-06T05:33:30;13.00;;;5.10;;
5121;SDS011;2563;52.242;7.956;2023-08-06T05:35:55;9.93;;;4.70;;
5121;SDS011;2563;52.242;7.956;2023-08-06T05:38:20;12.80;;;4.73;;
5121;SDS011;2563;52.242;7.956;2023-08-06T05:40:46;19.40;;;5.90;;
5121;SDS011;2563;52.242;7.956;2023-08-06T05:43:11;13.10;;;6.20;;
5121;SDS011;2563;52.242;7.956;2023-08-06T05:45:36;16.63;;;5.97;;
5121;SDS011;2563;52.242;7.956;2023-08-06T05:48:02;10.07;;;5.00;;
5121;SDS011;2563;52.242;7.956;2023-08-06T05:50:27;10.90;;;6.20;;
5121;SDS011;2563;52.242;7.956;2023-08-06T05:52:53;14.40;;;6.60;;
5121;SDS011;2563;52.242;7.956;2023-08-06T05:55:19;11.47;;;5.70;;
5121;SDS011;2563;52.242;7.956;2023-08-06T05:57:45;12.87;;;5.33;;
5121;SDS011;2563;52.242;7.956;2023-08-06T06:00:11;13.47;;;5.10;;
5121;SDS011;2563;52.242;7.956;2023-08-06T06:02:36;10.90;;;5.30;;
5121;SDS011;2563;52.242;7.956;2023-08-06T06:05:02;9.40;;;5.03;;
5121;SDS011;2563;52.242;7.956;2023-08-06T06:07:27;10.30;;;4.70;;
5121;SDS011;2563;52.242;7.956;2023-08-06T06:09:52;8.00;;;4.47;;
5121;SDS011;2563;52.242;7.956;2023-08-06T06:12:18;10.00;;;4.43;;
5121;SDS011;2563;52.242;7.956;2023-08-06T06:14:43;10.23;;;4.40;;
5121;SDS011;2563;52.242;7.956;2023-08-06T06:17:08;8.93;;;4.73;;
5121;SDS011;2563;52.242;7.956;2023-08-06T06:19:34;11.40;;;5.00;;
5121;SDS011;2563;52.242;7.956;2023-08-06T06:21:59;12.83;;;4.90;;
5121;SDS011;2563;52.242;7.956;2023-08-06T06:24:24;12.20;;;5.23;;
5121;SDS011;2563;52.242;7.956;2023-08-06T06:26:50;9.70;;;4.60;;
5121;SDS011;2563;52.242;7.956;2023-08-06T06:29:15;9.03;;;4.67;;
5121;SDS011;2563;52.242;7.956;2023-08-06T06:31:40;8.90;;;4.47;;
5121;SDS011;2563;52.242;7.956;2023-08-06T06:34:06;9.33;;;4.60;;
5121;SDS011;2563;52.242;7.956;2023-08-06T06:36:31;12.50;;;4.70;;
5121;SDS011;2563;52.242;7.956;2023-08-06T06:38:56;10.20;;;4.80;;
5121;SDS011;2563;52.242;7.956;2023-08-06T06:41:22;11.53;;;5.93;;
5121;SDS011;2563;52.242;7.956;2023-08-06T06:43:47;11.80;;;5.80;;
5121;SDS011;2563;52.242;7.956;2023-08-06T06:46:13;9.40;;;4.43;;
5121;SDS011;2563;52.242;7.956;2023-08-06T06:48:38;7.80;;;3.97;;
5121;SDS011;2563;52.242;7.956;2023-08-06T06:51:03;9.77;;;5.03;;
5121;SDS011;2563;52.242;7.956;2023-08-06T06:53:29;9.83;;;4.57;;
5121;SDS011;2563;52.242;7.956;2023-08-06T06:55:55;11.50;;;5.30;;
5121;SDS011;2563;52.242;7.956;2023-08-06T06:58:20;7.77;;;4.13;;
5121;SDS011;2563;52.242;7.956;2023-08-06T07:00:46;10.23;;;4.57;;
5121;SDS011;2563;52.242;7.956;2023-08-06T07:03:13;7.23;;;4.13;;
5121;SDS011;2563;52.242;7.956;2023-08-06T07:05:43;8.80;;;4.57;;
5121;SDS011;2563;52.242;7.956;2023-08-06T07:08:09;9.63;;;4.70;;
5121;SDS011;2563;52.242;7.956;2023-08-06T07:10:35;7.33;;;3.83;;
5121;SDS011;2563;52.242;7.956;2023-08-06T07:13:00;6.80;;;3.97;;
5121;SDS011;2563;52.242;7.956;2023-08-06T07:15:25;9.57;;;4.67;;
5121;SDS011;2563;52.242;7.956;2023-08-06T07:17:51;11.40;;;5.00;;
5121;SDS011;2563;52.242;7.956;2023-08-06T07:20:16;7.63;;;4.80;;
5121;SDS011;2563;52.242;7.956;2023-08-06T07:22:41;8.60;;;4.87;;
5121;SDS011;2563;52.242;7.956;2023-08-06T07:25:07;9.00;;;4.97;;
5121;SDS011;2563;52.242;7.956;2023-08-06T07:27:32;10.83;;;4.77;;
5121;SDS011;2563;52.242;7.956;2023-08-06T07:29:58;11.83;;;4.57;;
5121;SDS011;2563;52.242;7.956;2023-08-06T07:32:24;8.20;;;4.20;;
5121;SDS011;2563;52.242;7.956;2023-08-06T07:34:49;7.00;;;3.40;;
5121;SDS011;2563;52.242;7.956;2023-08-06T07:37:15;8.70;;;3.93;;
5121;SDS011;2563;52.242;7.956;2023-08-06T07:39:40;6.53;;;3.93;;
5121;SDS011;2563;52.242;7.956;2023-08-06T07:42:07;8.03;;;3.63;;
5121;SDS011;2563;52.242;7.956;2023-08-06T07:44:32;6.53;;;3.50;;
5121;SDS011;2563;52.242;7.956;2023-08-06T07:46:58;7.27;;;3.83;;
5121;SDS011;2563;52.242;7.956;2023-08-06T07:49:23;11.13;;;3.80;;
5121;SDS011;2563;52.242;7.956;2023-08-06T07:51:48;9.30;;;3.50;;
5121;SDS011;2563;52.242;7.956;2023-08-06T07:54:14;9.60;;;3.40;;
5121;SDS011;2563;52.242;7.956;2023-08-06T07:56:39;7.17;;;3.50;;
5121;SDS011;2563;52.242;7.956;2023-08-06T07:59:05;5.57;;;3.10;;
5121;SDS011;2563;52.242;7.956;2023-08-06T08:01:30;9.37;;;3.27;;
5121;SDS011;2563;52.242;7.956;2023-08-06T08:03:55;10.23;;;2.90;;
5121;SDS011;2563;52.242;7.956;2023-08-06T08:06:21;5.40;;;3.10;;
5121;SDS011;2563;52.242;7.956;2023-08-06T08:08:46;6.90;;;3.07;;
5121;SDS011;2563;52.242;7.956;2023-08-06T08:11:12;6.13;;;2.47;;
5121;SDS011;2563;52.242;7.956;2023-08-06T08:13:39;7.83;;;3.10;;
5121;SDS011;2563;52.242;7.956;2023-08-06T08:16:04;5.57;;;3.07;;
5121;SDS011;2563;52.242;7.956;2023-08-06T08:18:30;6.23;;;3.20;;
5121;SDS011;2563;52.242;7.956;2023-08-06T08:20:56;10.70;;;3.40;;
5121;SDS011;2563;52.242;7.956;2023-08-06T08:23:22;11.23;;;3.30;;
5121;SDS011;2563;52.242;7.956;2023-08-06T08:25:47;8.70;;;3.23;;
5121;SDS011;2563;52.242;7.956;2023-08-06T08:28:12;5.90;;;3.50;;
5121;SDS011;2563;52.242;7.956;2023-08-06T08:30:38;5.43;;;2.87;;
5121;SDS011;2563;52.242;7.956;2023-08-06T08:33:05;5.03;;;2.83;;
5121;SDS011;2563;52.242;7.956;2023-08-06T08:35:31;8.70;;;3.37;;
5121;SDS011;2563;52.242;7.956;2023-08-06T08:37:56;5.17;;;2.67;;
5121;SDS011;2563;52.242;7.956;2023-08-06T08:40:22;8.70;;;3.50;;
5121;SDS011;2563;52.242;7.956;2023-08-06T08:42:54;7.80;;;3.00;;
5121;SDS011;2563;52.242;7.956;2023-08-06T08:45:21;6.70;;;2.90;;
5121;SDS011;2563;52.242;7.956;2023-08-06T08:47:49;7.20;;;2.97;;
5121;SDS011;2563;52.242;7.956;2023-08-06T08:50:15;8.23;;;3.40;;
5121;SDS011;2563;52.242;7.956;2023-08-06T08:52:41;8.17;;;3.40;;
5121;SDS011;2563;52.242;7.956;2023-08-06T08:55:10;6.47;;;3.60;;
5121;SDS011;2563;52.242;7.956;2023-08-06T08:57:37;6.30;;;3.10;;
5121;SDS011;2563;52.242;7.956;2023-08-06T09:00:02;6.90;;;3.30;;
5121;SDS011;2563;52.242;7.956;2023-08-06T09:02:28;5.80;;;3.13;;
5121;SDS011;2563;52.242;7.956;2023-08-06T09:05:00;9.33;;;2.60;;
5121;SDS011;2563;52.242;7.956;2023-08-06T09:07:31;5.90;;;3.00;;
5121;SDS011;2563;52.242;7.956;2023-08-06T09:10:01;6.60;;;2.87;;
5121;SDS011;2563;52.242;7.956;2023-08-06T09:12:28;5.83;;;3.10;;
5121;SDS011;2563;52.242;7.956;2023-08-06T09:14:54;5.90;;;2.77;;
5121;SDS011;2563;52.242;7.956;2023-08-06T09:17:19;5.03;;;2.70;;
5121;SDS011;2563;52.242;7.956;2023-08-06T09:19:45;7.03;;;2.70;;
5121;SDS011;2563;52.242;7.956;2023-08-06T09:22:13;5.70;;;3.00;;
5121;SDS011;2563;52.242;7.956;2023-08-06T09:24:42;5.43;;;3.13;;
5121;SDS011;2563;52.242;7.956;2023-08-06T09:27:12;4.73;;;2.50;;
5121;SDS011;2563;52.242;7.956;2023-08-06T09:29:41;6.43;;;2.90;;
5121;SDS011;2563;52.242;7.956;2023-08-06T09:32:08;5.93;;;2.53;;
5121;SDS011;2563;52.242;7.956;2023-08-06T09:34:33;6.40;;;2.80;;
5121;SDS011;2563;52.242;7.956;2023-08-06T09:36:58;11.03;;;2.83;;
5121;SDS011;2563;52.242;7.956;2023-08-06T09:39:27;7.30;;;3.03;;
5121;SDS011;2563;52.242;7.956;2023-08-06T09:41:57;8.00;;;2.83;;
5121;SDS011;2563;52.242;7.956;2023-08-06T09:44:24;4.80;;;2.43;;
5121;SDS011;2563;52.242;7.956;2023-08-06T09:49:22;5.20;;;2.40;;
5121;SDS011;2563;52.242;7.956;2023-08-06T09:51:51;4.23;;;2.27;;
5121;SDS011;2563;52.242;7.956;2023-08-06T09:54:20;4.10;;;2.27;;
5121;SDS011;2563;52.242;7.956;2023-08-06T09:56:47;6.37;;;2.57;;
5121;SDS011;2563;52.242;7.956;2023-08-06T09:59:13;4.43;;;2.30;;
5121;SDS011;2563;52.242;7.956;2023-08-06T10:01:40;4.63;;;2.47;;
5121;SDS011;2563;52.242;7.956;2023-08-06T10:04:06;4.60;;;1.77;;
5121;SDS011;2563;52.242;7.956;2023-08-06T10:06:37;4.53;;;2.33;;
5121;SDS011;2563;52.242;7.956;2023-08-06T10:09:03;5.60;;;2.90;;
5121;SDS011;2563;52.242;7.956;2023-08-06T10:11:29;4.97;;;2.73;;
5121;SDS011;2563;52.242;7.956;2023-08-06T10:16:44;5.83;;;2.60;;
5121;SDS011;2563;52.242;7.956;2023-08-06T10:19:12;5.60;;;2.47;;
5121;SDS011;2563;52.242;7.956;2023-08-06T10:21:39;4.67;;;2.10;;
5121;SDS011;2563;52.242;7.956;2023-08-06T10:24:07;4.03;;;2.23;;
5121;SDS011;2563;52.242;7.956;2023-08-06T10:26:36;3.80;;;2.30;;
5121;SDS011;2563;52.242;7.956;2023-08-06T10:29:01;5.27;;;2.83;;
5121;SDS011;2563;52.242;7.956;2023-08-06T10:32:02;5.40;;;2.43;;
5121;SDS011;2563;52.242;7.956;2023-08-06T10:37:36;4.90;;;2.50;;
5121;SDS011;2563;52.242;7.956;2023-08-06T10:40:02;4.90;;;2.50;;
5121;SDS011;2563;52.242;7.956;2023-08-06T10:42:28;3.60;;;2.20;;
5121;SDS011;2563;52.242;7.956;2023-08-06T10:47:40;5.37;;;2.40;;
5121;SDS011;2563;52.242;7.956;2023-08-06T10:50:13;3.93;;;2.17;;
5121;SDS011;2563;52.242;7.956;2023-08-06T10:52:41;4.00;;;2.30;;
5121;SDS011;2563;52.242;7.956;2023-08-06T10:55:07;4.73;;;2.53;;
5121;SDS011;2563;52.242;7.956;2023-08-06T10:57:34;6.40;;;2.80;;
5121;SDS011;2563;52.242;7.956;2023-08-06T10:59:59;4.80;;;2.50;;
5121;SDS011;2563;52.242;7.956;2023-08-06T11:02:25;5.63;;;2.83;;
5121;SDS011;2563;52.242;7.956;2023-08-06T11:04:50;6.23;;;2.43;;
5121;SDS011;2563;52.242;7.956;2023-08-06T11:07:16;4.50;;;2.50;;
5121;SDS011;2563;52.242;7.956;2023-08-06T11:09:41;4.20;;;2.53;;
5121;SDS011;2563;52.242;7.956;2023-08-06T11:12:10;3.90;;;2.03;;
5121;SDS011;2563;52.242;7.956;2023-08-06T11:14:36;4.23;;;2.30;;
5121;SDS011;2563;52.242;7.956;2023-08-06T11:17:01;5.33;;;2.53;;
5121;SDS011;2563;52.242;7.956;2023-08-06T11:19:27;11.70;;;2.30;;
5121;SDS011;2563;52.242;7.956;2023-08-06T11:21:52;5.23;;;2.00;;
5121;SDS011;2563;52.242;7.956;2023-08-06T11:24:18;3.90;;;1.70;;
5121;SDS011;2563;52.242;7.956;2023-08-06T11:26:43;6.13;;;2.50;;
5121;SDS011;2563;52.242;7.956;2023-08-06T11:29:09;5.20;;;2.63;;
5121;SDS011;2563;52.242;7.956;2023-08-06T11:31:35;4.87;;;2.43;;
5121;SDS011;2563;52.242;7.956;2023-08-06T11:34:01;3.80;;;1.87;;
5121;SDS011;2563;52.242;7.956;2023-08-06T11:36:36;6.23;;;2.57;;
5121;SDS011;2563;52.242;7.956;2023-08-06T11:39:05;5.90;;;2.50;;
5121;SDS011;2563;52.242;7.956;2023-08-06T11:41:31;4.90;;;2.60;;
5121;SDS011;2563;52.242;7.956;2023-08-06T11:43:58;7.83;;;3.00;;
5121;SDS011;2563;52.242;7.956;2023-08-06T11:46:23;5.07;;;3.13;;
5121;SDS011;2563;52.242;7.956;2023-08-06T11:48:54;5.30;;;3.30;;
5121;SDS011;2563;52.242;7.956;2023-08-06T11:51:26;5.50;;;2.70;;
5121;SDS011;2563;52.242;7.956;2023-08-06T11:53:55;13.20;;;3.43;;
5121;SDS011;2563;52.242;7.956;2023-08-06T11:56:21;9.97;;;4.00;;
5121;SDS011;2563;52.242;7.956;2023-08-06T11:58:47;6.70;;;3.70;;
5121;SDS011;2563;52.242;7.956;2023-08-06T12:01:13;7.07;;;3.03;;
5121;SDS011;2563;52.242;7.956;2023-08-06T12:03:39;6.10;;;2.90;;
5121;SDS011;2563;52.242;7.956;2023-08-06T12:06:05;6.73;;;3.43;;
5121;SDS011;2563;52.242;7.956;2023-08-06T12:08:30;9.83;;;4.00;;
5121;SDS011;2563;52.242;7.956;2023-08-06T12:10:56;7.20;;;3.40;;
5121;SDS011;2563;52.242;7.956;2023-08-06T12:13:21;6.93;;;3.30;;
5121;SDS011;2563;52.242;7.956;2023-08-06T12:15:46;8.93;;;3.60;;
5121;SDS011;2563;52.242;7.956;2023-08-06T12:18:12;8.63;;;3.70;;
5121;SDS011;2563;52.242;7.956;2023-08-06T12:20:37;7.80;;;3.47;;
5121;SDS011;2563;52.242;7.956;2023-08-06T12:23:03;10.93;;;4.47;;
5121;SDS011;2563;52.242;7.956;2023-08-06T12:25:29;8.13;;;3.93;;
5121;SDS011;2563;52.242;7.956;2023-08-06T12:27:54;8.30;;;4.20;;
5121;SDS011;2563;52.242;7.956;2023-08-06T12:30:20;7.60;;;4.10;;
5121;SDS011;2563;52.242;7.956;2023-08-06T12:32:45;9.63;;;4.10;;
5121;SDS011;2563;52.242;7.956;2023-08-06T12:35:11;11.27;;;3.93;;
5121;SDS011;2563;52.242;7.956;2023-08-06T12:37:36;8.60;;;4.00;;
5121;SDS011;2563;52.242;7.956;2023-08-06T12:40:03;8.67;;;4.13;;
5121;SDS011;2563;52.242;7.956;2023-08-06T12:42:29;8.90;;;4.00;;
5121;SDS011;2563;52.242;7.956;2023-08-06T12:44:54;7.50;;;4.37;;
5121;SDS011;2563;52.242;7.956;2023-08-06T12:47:20;7.27;;;3.67;;
5121;SDS011;2563;52.242;7.956;2023-08-06T12:49:45;8.40;;;3.73;;
5121;SDS011;2563;52.242;7.956;2023-08-06T12:52:10;7.90;;;3.50;;
5121;SDS011;2563;52.242;7.956;2023-08-06T12:54:37;6.90;;;3.40;;
5121;SDS011;2563;52.242;7.956;2023-08-06T12:57:03;6.83;;;3.23;;
5121;SDS011;2563;52.242;7.956;2023-08-06T12:59:30;6.07;;;3.13;;
5121;SDS011;2563;52.242;7.956;2023-08-06T13:01:55;7.50;;;3.23;;
5121;SDS011;2563;52.242;7.956;2023-08-06T13:04:21;7.27;;;2.70;;
5121;SDS011;2563;52.242;7.956;2023-08-06T13:06:46;6.47;;;2.83;;
5121;SDS011;2563;52.242;7.956;2023-08-06T13:09:12;5.00;;;2.33;;
5121;SDS011;2563;52.242;7.956;2023-08-06T13:11:38;6.57;;;2.80;;
5121;SDS011;2563;52.242;7.956;2023-08-06T13:14:05;4.83;;;2.50;;
5121;SDS011;2563;52.242;7.956;2023-08-06T13:16:31;7.50;;;2.83;;
5121;SDS011;2563;52.242;7.956;2023-08-06T13:18:57;6.07;;;2.70;;
5121;SDS011;2563;52.242;7.956;2023-08-06T13:21:23;5.23;;;3.07;;
5121;SDS011;2563;52.242;7.956;2023-08-06T13:23:48;7.10;;;2.80;;
5121;SDS011;2563;52.242;7.956;2023-08-06T13:26:13;6.00;;;2.63;;
5121;SDS011;2563;52.242;7.956;2023-08-06T13:28:40;7.37;;;3.23;;
5121;SDS011;2563;52.242;7.956;2023-08-06T13:31:06;9.67;;;3.20;;
5121;SDS011;2563;52.242;7.956;2023-08-06T13:33:32;5.83;;;3.13;;
5121;SDS011;2563;52.242;7.956;2023-08-06T13:35:57;7.20;;;3.70;;
5121;SDS011;2563;52.242;7.956;2023-08-06T13:38:22;7.20;;;3.87;;
5121;SDS011;2563;52.242;7.956;2023-08-06T13:40:48;8.80;;;3.73;;
5121;SDS011;2563;52.242;7.956;2023-08-06T13:43:13;8.63;;;3.77;;
5121;SDS011;2563;52.242;7.956;2023-08-06T13:45:40;6.67;;;3.77;;
5121;SDS011;2563;52.242;7.956;2023-08-06T13:48:06;9.43;;;4.17;;
5121;SDS011;2563;52.242;7.956;2023-08-06T13:50:31;6.77;;;3.73;;
5121;SDS011;2563;52.242;7.956;2023-08-06T13:52:57;6.70;;;3.60;;
5121;SDS011;2563;52.242;7.956;2023-08-06T13:55:22;7.93;;;4.23;;
5121;SDS011;2563;52.242;7.956;2023-08-06T13:57:47;12.80;;;3.87;;
5121;SDS011;2563;52.242;7.956;2023-08-06T14:00:13;7.70;;;3.90;;
5121;SDS011;2563;52.242;7.956;2023-08-06T14:02:38;10.17;;;4.80;;
5121;SDS011;2563;52.242;7.956;2023-08-06T14:05:04;9.07;;;4.60;;
5121;SDS011;2563;52.242;7.956;2023-08-06T14:07:30;10.53;;;4.63;;
5121;SDS011;2563;52.242;7.956;2023-08-06T14:09:55;6.70;;;3.70;;
5121;SDS011;2563;52.242;7.956;2023-08-06T14:12:22;7.90;;;4.10;;
5121;SDS011;2563;52.242;7.956;2023-08-06T14:14:48;8.70;;;4.43;;
5121;SDS011;2563;52.242;7.956;2023-08-06T14:17:13;8.30;;;3.90;;
5121;SDS011;2563;52.242;7.956;2023-08-06T14:19:38;8.60;;;4.47;;
5121;SDS011;2563;52.242;7.956;2023-08-06T14:22:04;8.70;;;4.60;;
5121;SDS011;2563;52.242;7.956;2023-08-06T14:24:29;9.10;;;4.30;;
5121;SDS011;2563;52.242;7.956;2023-08-06T14:26:55;5.43;;;2.90;;
5121;SDS011;2563;52.242;7.956;2023-08-06T14:29:20;7.93;;;4.30;;
5121;SDS011;2563;52.242;7.956;2023-08-06T14:31:45;6.53;;;3.47;;
5121;SDS011;2563;52.242;7.956;2023-08-06T14:34:11;6.60;;;3.47;;
5121;SDS011;2563;52.242;7.956;2023-08-06T14:36:36;5.50;;;2.80;;
5121;SDS011;2563;52.242;7.956;2023-08-06T14:39:02;5.37;;;2.67;;
5121;SDS011;2563;52.242;7.956;2023-08-06T14:41:27;8.70;;;3.27;;
5121;SDS011;2563;52.242;7.956;2023-08-06T14:43:52;5.70;;;2.93;;
5121;SDS011;2563;52.242;7.956;2023-08-06T14:46:19;4.67;;;2.63;;
5121;SDS011;2563;52.242;7.956;2023-08-06T14:48:44;6.10;;;2.90;;
5121;SDS011;2563;52.242;7.956;2023-08-06T14:51:10;7.03;;;2.47;;
5121;SDS011;2563;52.242;7.956;2023-08-06T14:53:35;5.90;;;3.00;;
5121;SDS011;2563;52.242;7.956;2023-08-06T14:56:00;6.43;;;2.60;;
5121;SDS011;2563;52.242;7.956;2023-08-06T14:58:26;6.33;;;2.70;;
5121;SDS011;2563;52.242;7.956;2023-08-06T15:00:52;5.20;;;2.80;;
5121;SDS011;2563;52.242;7.956;2023-08-06T15:03:17;6.80;;;2.60;;
5121;SDS011;2563;52.242;7.956;2023-08-06T15:05:43;5.27;;;2.90;;
5121;SDS011;2563;52.242;7.956;2023-08-06T15:08:09;5.10;;;2.80;;
5121;SDS011;2563;52.242;7.956;2023-08-06T15:10:35;5.47;;;2.73;;
5121;SDS011;2563;52.242;7.956;2023-08-06T15:13:00;7.80;;;2.80;;
5121;SDS011;2563;52.242;7.956;2023-08-06T15:15:28;5.80;;;2.83;;
5121;SDS011;2563;52.242;7.956;2023-08-06T15:17:53;5.20;;;2.83;;
5121;SDS011;2563;52.242;7.956;2023-08-06T15:20:18;10.73;;;3.00;;
5121;SDS011;2563;52.242;7.956;2023-08-06T15:22:44;7.50;;;2.70;;
5121;SDS011;2563;52.242;7.956;2023-08-06T15:25:09;7.43;;;2.87;;